Time;durP1;ratioP1;P1;durP2;ratioP2;P2;SDS_P1;SDS_P2;PMS_P1;PMS_P2;Temp;Humidity;BMP_temperature;BMP_pressure;BME280_temperature;BME280_humidity;BME280_pressure;Samples;Min_cycle;Max_cycle;Signal;HPM_P1;HPM_P2
2022/04/29 00:01:05;;;;;;;9.25;4.40;;;8.70;99.90;;;;;;5052407;28;20041;-64
2022/04/29 00:03:31;;;;;;;9.45;4.93;;;8.80;99.90;;;;;;5052343;28;20048;-64
2022/04/29 00:05:57;;;;;;;9.50;4.88;;;8.70;99.90;;;;;;5034532;28;20547;-63
2022/04/29 00:08:23;;;;;;;7.85;4.63;;;8.60;99.90;;;;;;5052259;28;20064;-63
2022/04/29 00:10:48;;;;;;;7.50;4.70;;;8.60;99.90;;;;;;5052320;28;20021;-67
2022/04/29 00:13:15;;;;;;;11.88;4.68;;;8.60;99.90;;;;;;5054678;28;20120;-67
2022/04/29 00:15:42;;;;;;;10.52;5.07;;;8.50;99.90;;;;;;5056540;28;20400;-67
2022/04/29 00:18:08;;;;;;;12.20;5.15;;;8.60;99.90;;;;;;5056595;28;20123;-67
2022/04/29 00:20:34;;;;;;;7.00;4.30;;;8.50;99.90;;;;;;5056248;28;20044;-66
2022/04/29 00:23:00;;;;;;;7.28;4.53;;;8.50;99.90;;;;;;5056218;28;20033;-66
2022/04/29 00:25:26;;;;;;;9.07;4.50;;;8.50;99.90;;;;;;5056216;28;20048;-66
2022/04/29 00:27:51;;;;;;;8.82;5.50;;;8.50;99.90;;;;;;5056277;28;20025;-65
2022/04/29 00:30:17;;;;;;;10.00;4.90;;;8.40;99.90;;;;;;5056141;28;20037;-65
2022/04/29 00:32:43;;;;;;;11.02;4.93;;;8.30;99.90;;;;;;5056188;28;20108;-65
2022/04/29 00:35:09;;;;;;;11.45;5.30;;;8.20;99.90;;;;;;5056334;28;20040;-62
2022/04/29 00:37:52;;;;;;;10.95;5.70;;;8.10;99.90;;;;;;5056330;28;20040;-62
2022/04/29 00:40:20;;;;;;;10.80;4.38;;;8.10;99.90;;;;;;5055931;28;20033;-62
2022/04/29 00:42:47;;;;;;;10.43;4.82;;;8.20;99.90;;;;;;5055928;28;20389;-65
2022/04/29 00:45:15;;;;;;;11.32;5.05;;;8.20;99.90;;;;;;5055857;28;20033;-61
2022/04/29 00:47:41;;;;;;;10.27;5.32;;;8.20;99.90;;;;;;5055884;28;20072;-62
2022/04/29 00:50:07;;;;;;;8.52;4.80;;;8.20;99.90;;;;;;5055761;28;20020;-62
2022/04/29 00:52:36;;;;;;;10.57;4.97;;;8.20;99.90;;;;;;5055824;28;20029;-62
2022/04/29 00:55:08;;;;;;;10.68;5.53;;;8.20;99.90;;;;;;5055678;28;20052;-62
2022/04/29 00:57:45;;;;;;;8.52;4.28;;;8.20;99.90;;;;;;5037946;28;20496;-62
2022/04/29 01:00:14;;;;;;;7.40;5.15;;;8.20;99.90;;;;;;5055263;28;20106;-62
2022/04/29 01:02:42;;;;;;;10.70;5.13;;;8.20;99.90;;;;;;5055698;28;20477;-62
2022/04/29 01:05:10;;;;;;;8.52;4.63;;;8.20;99.90;;;;;;5055586;28;20035;-63
2022/04/29 01:07:37;;;;;;;8.38;3.95;;;8.20;99.90;;;;;;5055519;28;20025;-63
2022/04/29 01:10:05;;;;;;;8.57;5.32;;;8.20;99.90;;;;;;5055536;28;20489;-63
2022/04/29 01:12:34;;;;;;;8.93;5.00;;;8.10;99.90;;;;;;5055200;28;20508;-65
2022/04/29 01:15:04;;;;;;;11.15;5.10;;;8.10;99.90;;;;;;5055397;28;20137;-65
2022/04/29 01:17:31;;;;;;;14.25;6.25;;;8.10;99.90;;;;;;5055293;28;20044;-66
2022/04/29 01:20:04;;;;;;;11.43;6.57;;;8.20;99.90;;;;;;5055406;28;20427;-65
2022/04/29 01:22:31;;;;;;;10.77;5.22;;;8.20;99.90;;;;;;5055041;28;20489;-65
2022/04/29 01:24:57;;;;;;;9.93;4.60;;;8.20;99.90;;;;;;5053793;28;20037;-65
2022/04/29 01:27:23;;;;;;;9.48;4.45;;;8.10;99.90;;;;;;5055152;28;20056;-65
2022/04/29 01:29:57;;;;;;;8.77;4.90;;;8.10;99.90;;;;;;5055143;28;20037;-65
2022/04/29 01:32:24;;;;;;;9.70;4.85;;;8.10;99.90;;;;;;5054987;28;20033;-62
2022/04/29 01:34:49;;;;;;;10.75;4.22;;;8.10;99.90;;;;;;5054964;28;20108;-66
2022/04/29 01:37:16;;;;;;;9.10;4.60;;;8.10;99.90;;;;;;5055387;28;20117;-66
2022/04/29 01:39:41;;;;;;;7.90;4.97;;;8.10;99.90;;;;;;5054791;28;20393;-66
2022/04/29 01:42:07;;;;;;;10.65;4.82;;;8.10;99.90;;;;;;5054767;28;20032;-66
2022/04/29 01:44:33;;;;;;;11.98;5.05;;;8.10;99.90;;;;;;5036920;28;20033;-66
2022/04/29 01:46:58;;;;;;;14.25;5.38;;;8.10;99.90;;;;;;5036931;28;20037;-66
2022/04/29 01:49:24;;;;;;;9.00;4.80;;;8.00;99.90;;;;;;5054725;28;20088;-66
2022/04/29 01:51:50;;;;;;;9.00;5.35;;;8.10;99.90;;;;;;5054706;28;20032;-66
2022/04/29 01:54:15;;;;;;;9.18;4.50;;;8.00;99.90;;;;;;5054588;28;20036;-66
2022/04/29 01:56:41;;;;;;;9.48;5.72;;;8.10;99.90;;;;;;5054686;28;20041;-66
2022/04/29 01:59:07;;;;;;;11.23;5.07;;;7.90;99.90;;;;;;5054418;28;20068;-66
2022/04/29 02:01:34;;;;;;;5.72;4.70;;;7.90;99.90;;;;;;5054457;28;20029;-66
2022/04/29 02:04:00;;;;;;;9.95;4.93;;;7.90;99.90;;;;;;5054348;28;20045;-67
2022/04/29 02:06:27;;;;;;;8.45;4.88;;;7.90;99.90;;;;;;5054477;28;20427;-66
2022/04/29 02:08:53;;;;;;;9.65;4.78;;;7.90;99.90;;;;;;5054184;28;20063;-67
2022/04/29 02:11:20;;;;;;;6.80;4.80;;;7.90;99.90;;;;;;5054378;28;20033;-66
2022/04/29 02:13:46;;;;;;;9.10;5.07;;;7.90;99.90;;;;;;5054447;28;20453;-66
2022/04/29 02:16:15;;;;;;;11.27;5.07;;;7.80;99.90;;;;;;5054023;28;20044;-67
2022/04/29 02:18:41;;;;;;;8.38;4.55;;;7.70;99.90;;;;;;5054294;28;20116;-67
2022/04/29 02:21:07;;;;;;;10.65;5.43;;;7.60;99.90;;;;;;5054072;28;20153;-67
2022/04/29 02:23:33;;;;;;;7.25;4.85;;;7.60;99.90;;;;;;5053920;28;20037;-67
2022/04/29 02:25:59;;;;;;;9.32;5.20;;;7.60;99.90;;;;;;5054121;28;20039;-67
2022/04/29 02:28:27;;;;;;;12.30;5.60;;;7.60;99.90;;;;;;5054022;28;20473;-67
2022/04/29 02:30:54;;;;;;;;;;;7.60;99.90;;;;;;5054362;28;20119;-67
2022/04/29 02:33:20;;;;;;;10.35;5.10;;;7.60;99.90;;;;;;5053893;28;19904;-67
2022/04/29 02:35:46;;;;;;;8.23;4.72;;;7.60;99.90;;;;;;5053295;28;20052;-62
2022/04/29 02:38:11;;;;;;;11.48;5.00;;;7.60;99.90;;;;;;5053760;28;20481;-63
2022/04/29 02:40:37;;;;;;;10.93;5.05;;;7.50;99.90;;;;;;5035985;28;20033;-62
2022/04/29 02:43:03;;;;;;;6.95;4.85;;;7.50;99.90;;;;;;5035767;28;20040;-67
2022/04/29 02:45:28;;;;;;;8.65;4.78;;;7.40;99.90;;;;;;5053600;28;20025;-67
2022/04/29 02:47:54;;;;;;;10.65;4.65;;;7.30;99.90;;;;;;5053623;28;20037;-62
2022/04/29 02:50:20;;;;;;;7.45;3.97;;;7.20;99.90;;;;;;5053536;28;20459;-62
2022/04/29 02:52:45;;;;;;;11.25;4.82;;;7.10;99.90;;;;;;5053398;28;20037;-62
2022/04/29 02:55:11;;;;;;;9.05;4.28;;;6.90;99.90;;;;;;5053516;28;20033;-62
2022/04/29 02:57:37;;;;;;;11.32;4.75;;;6.90;99.90;;;;;;5053464;28;20489;-62
2022/04/29 03:00:03;;;;;;;8.35;4.32;;;7.00;99.90;;;;;;5053181;28;20536;-62
2022/04/29 03:02:29;;;;;;;5.95;4.13;;;6.90;99.90;;;;;;5053188;28;20126;-62
2022/04/29 03:04:55;;;;;;;9.55;4.75;;;6.80;99.90;;;;;;5053210;28;20053;-62
2022/04/29 03:07:20;;;;;;;8.15;4.72;;;6.80;99.90;;;;;;5053195;28;20514;-62
2022/04/29 03:09:48;;;;;;;6.47;4.15;;;6.70;99.90;;;;;;5053310;28;20029;-62
2022/04/29 03:12:14;;;;;;;6.35;4.68;;;6.70;99.90;;;;;;5053231;28;20047;-62
2022/04/29 03:14:41;;;;;;;6.55;3.60;;;6.60;99.90;;;;;;5053161;28;20044;-67
2022/04/29 03:18:17;;;;;;;7.43;4.15;;;6.60;99.90;;;;;;5053059;28;20068;-67
2022/04/29 03:19:52;;;;;;;6.57;4.18;;;6.50;99.90;;;;;;5052957;28;20067;-67
2022/04/29 03:22:18;;;;;;;9.55;4.28;;;6.40;99.90;;;;;;5052852;28;20443;-63
2022/04/29 03:24:43;;;;;;;6.28;4.03;;;6.40;99.90;;;;;;5052964;28;20481;-67
2022/04/29 03:27:09;;;;;;;7.03;4.38;;;6.30;99.90;;;;;;5052945;28;20464;-67
2022/04/29 03:29:34;;;;;;;9.73;4.70;;;6.20;99.90;;;;;;5052854;28;20033;-62
2022/04/29 03:32:00;;;;;;;5.93;4.28;;;6.20;99.90;;;;;;5052650;28;20064;-62
2022/04/29 03:34:26;;;;;;;6.72;4.10;;;6.20;99.90;;;;;;5052646;28;20044;-62
2022/04/29 03:36:52;;;;;;;8.05;4.47;;;6.20;99.90;;;;;;5052813;28;20501;-62
2022/04/29 03:39:18;;;;;;;10.77;4.65;;;6.20;99.90;;;;;;5052772;28;20063;-67
2022/04/29 03:41:45;;;;;;;9.55;5.50;;;6.20;99.90;;;;;;5052621;28;20041;-67
2022/04/29 03:44:11;;;;;;;7.32;4.57;;;6.30;99.90;;;;;;5052557;28;20065;-67
2022/04/29 03:46:37;;;;;;;8.52;4.38;;;6.40;99.90;;;;;;5052027;28;20037;-68
2022/04/29 03:51:47;;;;;;;11.45;4.70;;;6.30;99.90;;;;;;5052676;28;20056;-68
2022/04/29 03:54:13;;;;;;;8.88;4.82;;;6.30;99.90;;;;;;5052437;28;20040;-68
2022/04/29 03:56:38;;;;;;;11.32;5.45;;;6.20;99.90;;;;;;5052606;28;20470;-62
2022/04/29 03:59:05;;;;;;;8.40;4.55;;;6.20;99.90;;;;;;5052323;28;20134;-62
2022/04/29 04:01:31;;;;;;;9.95;5.07;;;6.10;99.90;;;;;;5052345;28;20045;-68
2022/04/29 04:03:56;;;;;;;7.68;4.40;;;6.10;99.90;;;;;;5052434;28;20033;-61
2022/04/29 04:09:06;;;;;;;7.38;4.80;;;5.90;99.90;;;;;;5052497;28;20040;-68
2022/04/29 04:11:33;;;;;;;7.63;5.65;;;5.90;99.90;;;;;;5052319;28;20309;-68
2022/04/29 04:13:58;;;;;;;13.10;5.35;;;6.10;99.90;;;;;;5052229;28;20076;-68
2022/04/29 04:16:24;;;;;;;9.65;4.80;;;6.10;99.90;;;;;;5052300;28;20060;-67
2022/04/29 04:18:50;;;;;;;6.05;4.07;;;6.10;99.90;;;;;;5052279;28;20065;-67
2022/04/29 04:21:16;;;;;;;9.10;5.00;;;6.10;99.90;;;;;;5052286;28;20037;-61
2022/04/29 04:23:42;;;;;;;7.15;4.65;;;6.00;99.90;;;;;;5052151;28;20047;-68
2022/04/29 04:26:08;;;;;;;8.82;5.78;;;6.00;99.90;;;;;;5052207;28;20053;-61
2022/04/29 04:28:33;;;;;;;10.07;5.15;;;6.10;99.90;;;;;;5034441;28;20139;-61
2022/04/29 04:30:59;;;;;;;14.05;5.25;;;6.10;99.90;;;;;;5052185;28;20056;-61
2022/04/29 04:33:24;;;;;;;9.40;5.50;;;6.10;99.90;;;;;;5052242;28;20037;-61
2022/04/29 04:35:50;;;;;;;8.63;5.53;;;6.10;99.90;;;;;;5052153;28;20068;-61
2022/04/29 04:38:16;;;;;;;11.98;5.32;;;6.20;99.90;;;;;;5052114;28;20033;-61
2022/04/29 04:40:42;;;;;;;12.95;5.00;;;6.20;99.90;;;;;;5052061;28;20091;-61
2022/04/29 04:43:08;;;;;;;11.55;5.53;;;6.10;99.90;;;;;;5051907;28;20040;-61
2022/04/29 04:45:34;;;;;;;13.93;5.38;;;6.10;99.90;;;;;;5034110;28;20037;-61
2022/04/29 04:48:00;;;;;;;14.73;5.75;;;6.10;99.90;;;;;;5052035;28;20512;-61
2022/04/29 04:50:25;;;;;;;11.38;6.28;;;6.20;99.90;;;;;;5051935;28;20037;-61
2022/04/29 04:52:51;;;;;;;10.95;5.72;;;6.20;99.90;;;;;;5051865;28;20112;-61
2022/04/29 04:55:17;;;;;;;11.80;6.20;;;6.20;99.90;;;;;;5051837;28;20086;-67
2022/04/29 04:57:42;;;;;;;10.13;5.80;;;6.30;99.90;;;;;;5052077;28;20029;-66
2022/04/29 05:00:09;;;;;;;9.00;5.50;;;6.40;99.90;;;;;;5055261;28;20076;-66
2022/04/29 05:02:38;;;;;;;15.85;6.30;;;6.60;99.90;;;;;;5055590;28;20041;-66
2022/04/29 05:05:03;;;;;;;9.20;5.95;;;6.70;99.90;;;;;;5055835;28;20108;-63
2022/04/29 05:07:29;;;;;;;13.27;6.45;;;6.70;99.90;;;;;;5037697;28;20514;-61
2022/04/29 05:09:55;;;;;;;10.40;5.82;;;6.80;99.90;;;;;;5037623;28;20116;-61
2022/04/29 05:12:21;;;;;;;14.95;6.30;;;6.90;99.90;;;;;;5055381;28;20155;-61
2022/04/29 05:14:46;;;;;;;8.60;5.07;;;6.90;99.90;;;;;;5055324;28;20029;-61
2022/04/29 05:17:12;;;;;;;8.43;5.55;;;7.00;99.90;;;;;;5055386;28;20433;-61
2022/04/29 05:19:38;;;;;;;13.00;5.75;;;7.10;99.90;;;;;;5055294;28;20076;-66
2022/04/29 05:22:04;;;;;;;11.75;5.63;;;7.20;99.90;;;;;;5055178;28;20037;-60
2022/04/29 05:24:30;;;;;;;9.77;5.53;;;7.20;99.90;;;;;;5055000;28;20091;-61
2022/04/29 05:26:56;;;;;;;12.35;5.68;;;7.30;99.90;;;;;;5055044;28;20040;-61
2022/04/29 05:29:22;;;;;;;8.15;4.20;;;7.30;99.90;;;;;;5055008;28;20033;-61
2022/04/29 05:31:47;;;;;;;12.85;5.68;;;7.40;99.90;;;;;;5055131;28;20037;-60
2022/04/29 05:34:14;;;;;;;10.25;4.97;;;7.50;99.90;;;;;;5054923;28;20040;-65
2022/04/29 05:36:39;;;;;;;10.30;4.60;;;7.50;99.90;;;;;;5055061;28;20036;-60
2022/04/29 05:44:34;;;;;;;9.27;5.00;;;7.40;99.90;;;;;;5054798;28;20059;-61
2022/04/29 05:47:00;;;;;;;6.13;4.28;;;7.50;99.90;;;;;;5054796;28;20496;-61
2022/04/29 05:49:26;;;;;;;7.80;4.05;;;7.60;99.90;;;;;;5054734;28;20135;-61
2022/04/29 05:51:51;;;;;;;8.18;4.63;;;7.70;99.90;;;;;;5054568;28;20025;-61
2022/04/29 05:54:17;;;;;;;8.77;4.80;;;7.60;99.90;;;;;;5054656;28;20045;-62
2022/04/29 05:56:43;;;;;;;9.95;4.60;;;7.70;99.90;;;;;;5037177;28;20067;-61
2022/04/29 05:59:08;;;;;;;9.00;4.95;;;7.70;99.90;;;;;;5054441;28;20053;-61
2022/04/29 06:01:34;;;;;;;7.38;4.20;;;7.80;99.90;;;;;;5054432;28;20040;-61
2022/04/29 06:03:59;;;;;;;8.48;4.70;;;7.80;99.90;;;;;;5054408;28;20033;-62
2022/04/29 06:06:25;;;;;;;7.43;4.47;;;7.80;99.90;;;;;;5054302;28;20083;-61
2022/04/29 06:08:51;;;;;;;8.43;4.28;;;7.70;99.90;;;;;;5049623;28;20105;-61
2022/04/29 06:11:17;;;;;;;7.55;4.18;;;7.70;99.90;;;;;;5050087;28;20032;-67
2022/04/29 06:13:43;;;;;;;6.10;4.45;;;7.70;99.90;;;;;;5041734;28;20037;-66
2022/04/29 06:16:10;;;;;;;5.97;4.63;;;7.80;99.90;;;;;;5034866;28;20520;-66
2022/04/29 06:18:36;;;;;;;8.23;4.50;;;7.80;99.90;;;;;;5052811;28;20049;-66
2022/04/29 06:21:02;;;;;;;8.45;4.10;;;7.80;99.90;;;;;;5054411;28;20074;-67
2022/04/29 06:23:28;;;;;;;7.25;4.53;;;7.90;99.90;;;;;;5036183;28;20425;-67
2022/04/29 06:25:54;;;;;;;9.80;4.30;;;7.90;99.90;;;;;;5053406;28;20040;-67
2022/04/29 06:28:19;;;;;;;6.10;4.50;;;7.80;99.90;;;;;;5053412;28;20045;-68
2022/04/29 06:30:45;;;;;;;7.32;4.40;;;7.80;99.90;;;;;;5053483;28;20033;-66
2022/04/29 06:33:10;;;;;;;7.90;4.68;;;7.90;99.90;;;;;;5053493;28;20032;-66
2022/04/29 06:35:42;;;;;;;8.50;4.72;;;7.90;99.90;;;;;;5053430;28;20037;-67
2022/04/29 06:38:11;;;;;;;5.50;3.88;;;7.90;99.90;;;;;;5035769;28;20040;-62
2022/04/29 06:40:36;;;;;;;7.97;4.60;;;8.00;99.90;;;;;;5053705;28;20112;-61
2022/04/29 06:43:02;;;;;;;7.18;4.18;;;8.00;99.90;;;;;;5053527;28;20117;-61
2022/04/29 06:45:28;;;;;;;7.43;3.88;;;8.10;99.90;;;;;;5053467;28;20068;-66
2022/04/29 06:47:56;;;;;;;11.20;4.70;;;8.20;99.90;;;;;;5053544;28;20033;-66
2022/04/29 06:50:22;;;;;;;17.00;4.53;;;8.30;99.90;;;;;;5053261;28;20071;-61
2022/04/29 06:52:47;;;;;;;7.60;4.10;;;8.50;99.90;;;;;;5053377;28;20508;-67
2022/04/29 06:55:13;;;;;;;5.90;3.65;;;8.60;99.90;;;;;;5053407;28;20064;-61
2022/04/29 06:57:39;;;;;;;9.27;4.03;;;8.60;99.90;;;;;;5053434;28;20090;-65
2022/04/29 07:00:05;;;;;;;7.82;3.50;;;8.70;99.90;;;;;;5035367;28;20060;-61
2022/04/29 07:02:32;;;;;;;7.28;3.30;;;8.80;99.90;;;;;;5052914;28;20176;-66
2022/04/29 07:04:59;;;;;;;7.15;3.28;;;8.80;99.90;;;;;;5053264;28;20036;-66
2022/04/29 07:07:28;;;;;;;5.82;3.35;;;9.00;99.90;;;;;;5053083;28;20045;-67
2022/04/29 07:09:54;;;;;;;7.32;3.58;;;9.10;99.90;;;;;;5053425;28;20033;-66
2022/04/29 07:12:20;;;;;;;6.82;3.60;;;9.20;99.90;;;;;;5052854;28;20489;-66
2022/04/29 07:14:45;;;;;;;7.75;3.53;;;9.20;99.90;;;;;;5034994;28;20029;-67
2022/04/29 07:17:11;;;;;;;10.23;3.53;;;9.30;99.90;;;;;;5052770;28;20033;-66
2022/04/29 07:19:37;;;;;;;10.70;3.90;;;9.30;99.90;;;;;;5052969;28;20072;-67
2022/04/29 07:22:06;;;;;;;11.68;4.00;;;9.40;99.90;;;;;;5052876;28;20021;-66
2022/04/29 07:24:32;;;;;;;6.97;3.75;;;9.50;99.90;;;;;;5052879;28;20451;-66
2022/04/29 07:26:58;;;;;;;5.07;3.70;;;9.60;99.90;;;;;;5052721;28;20047;-66
2022/04/29 07:29:24;;;;;;;7.07;3.80;;;9.80;99.90;;;;;;5052708;28;20083;-68
2022/04/29 07:31:49;;;;;;;7.90;3.80;;;9.90;99.90;;;;;;5052763;28;20110;-67
2022/04/29 07:34:15;;;;;;;5.53;3.58;;;10.10;99.90;;;;;;5052488;28;20033;-67
2022/04/29 07:42:09;;;;;;;3.95;3.15;;;10.70;99.90;;;;;;5052608;28;20075;-62
2022/04/29 07:44:34;;;;;;;6.82;3.60;;;10.60;99.90;;;;;;5052315;28;20073;-63
2022/04/29 07:47:00;;;;;;;5.43;3.30;;;10.50;99.90;;;;;;5052609;28;20428;-64
2022/04/29 07:49:26;;;;;;;4.03;2.92;;;10.50;99.90;;;;;;5052325;28;20139;-65
2022/04/29 07:51:52;;;;;;;3.17;2.85;;;10.50;99.90;;;;;;5052432;28;20040;-66
2022/04/29 07:54:17;;;;;;;4.20;2.80;;;10.50;99.90;;;;;;5034602;28;20120;-63
2022/04/29 07:56:43;;;;;;;12.20;3.42;;;10.60;99.90;;;;;;5052171;28;20057;-63
2022/04/29 07:59:09;;;;;;;4.93;3.05;;;10.70;99.90;;;;;;5052203;28;20053;-63
2022/04/29 08:01:36;;;;;;;5.10;2.95;;;10.80;99.90;;;;;;5052334;28;20116;-63
2022/04/29 08:04:02;;;;;;;5.40;3.00;;;10.90;99.90;;;;;;5034468;28;20084;-63
2022/04/29 08:06:28;;;;;;;3.75;2.28;;;11.20;99.90;;;;;;5052185;28;20422;-64
2022/04/29 08:08:54;;;;;;;4.50;2.17;;;11.40;99.90;;;;;;5052395;28;20065;-63
2022/04/29 08:11:20;;;;;;;3.40;2.58;;;11.50;99.90;;;;;;5052014;28;20026;-66
2022/04/29 08:13:47;;;;;;;4.90;2.90;;;11.40;99.70;;;;;;5052290;28;20396;-64
2022/04/29 08:16:13;;;;;;;4.95;3.20;;;11.30;99.90;;;;;;5052163;28;20070;-63
2022/04/29 08:18:39;;;;;;;7.68;2.47;;;11.30;99.30;;;;;;5052287;28;20087;-65
2022/04/29 08:21:05;;;;;;;5.03;2.35;;;11.40;99.00;;;;;;5052082;28;20045;-64
2022/04/29 08:23:31;;;;;;;2.88;2.30;;;11.50;98.60;;;;;;5051877;28;20029;-64
2022/04/29 08:25:57;;;;;;;5.45;2.72;;;11.60;99.00;;;;;;5052437;28;20045;-63
2022/04/29 08:28:29;;;;;;;4.60;2.45;;;11.90;99.90;;;;;;5051968;28;20017;-67
2022/04/29 08:30:54;;;;;;;5.38;2.50;;;12.10;98.90;;;;;;5052033;28;20025;-63
2022/04/29 08:33:21;;;;;;;2.97;2.28;;;12.40;98.00;;;;;;5052699;28;20033;-64
2022/04/29 08:35:47;;;;;;;3.38;1.63;;;12.50;96.50;;;;;;5056057;28;20048;-63
2022/04/29 08:38:13;;;;;;;3.83;2.30;;;12.60;96.70;;;;;;5038121;28;20049;-64
2022/04/29 08:40:44;;;;;;;4.55;2.05;;;12.70;96.40;;;;;;5037932;28;20045;-67
2022/04/29 08:43:14;;;;;;;2.15;1.85;;;12.80;96.20;;;;;;5055824;28;20124;-67
2022/04/29 08:45:42;;;;;;;2.80;1.65;;;13.00;95.70;;;;;;5055815;28;20112;-64
2022/04/29 08:48:08;;;;;;;4.15;1.50;;;13.40;94.80;;;;;;5055763;28;20036;-63
2022/04/29 08:50:34;;;;;;;3.42;1.73;;;13.80;93.50;;;;;;5055721;28;20435;-64
2022/04/29 08:53:00;;;;;;;4.82;2.03;;;13.80;92.80;;;;;;5055581;28;20033;-66
2022/04/29 09:01:21;;;;;;;5.45;2.05;;;13.60;92.50;;;;;;5055715;28;20040;-67
2022/04/29 09:03:47;;;;;;;3.90;1.83;;;13.60;93.20;;;;;;5049970;28;20095;-66
2022/04/29 09:06:17;;;;;;;4.32;1.75;;;13.60;91.90;;;;;;5055581;28;20072;-67
2022/04/29 09:08:44;;;;;;;3.05;1.40;;;13.50;91.10;;;;;;5055589;28;20112;-64
2022/04/29 09:11:19;;;;;;;1.73;1.40;;;13.60;90.40;;;;;;5055645;28;20527;-67
2022/04/29 09:13:45;;;;;;;5.53;1.52;;;13.60;91.00;;;;;;5055386;28;20033;-66
2022/04/29 09:16:12;;;;;;;2.92;1.33;;;13.60;92.60;;;;;;5055340;28;20551;-66
2022/04/29 09:18:46;;;;;;;3.75;1.70;;;13.70;91.50;;;;;;5055455;28;20036;-66
2022/04/29 09:21:18;;;;;;;1.65;1.27;;;13.80;90.80;;;;;;5055307;28;20072;-67
2022/04/29 09:23:56;;;;;;;3.15;1.33;;;13.90;90.30;;;;;;5055177;28;20041;-65
2022/04/29 09:26:33;;;;;;;;;;;14.40;90.50;;;;;;5055482;28;20542;-64
2022/04/29 09:29:15;;;;;;;2.42;1.25;;;14.50;88.40;;;;;;5055187;28;19923;-65
2022/04/29 09:31:58;;;;;;;1.50;1.35;;;14.60;85.10;;;;;;5055096;28;20054;-64
2022/04/29 09:34:43;;;;;;;2.65;1.40;;;14.70;85.80;;;;;;5037060;28;20033;-67
2022/04/29 09:37:17;;;;;;;1.67;1.30;;;15.00;82.50;;;;;;5054813;28;20126;-67
2022/04/29 09:40:00;;;;;;;2.38;1.38;;;15.40;82.00;;;;;;5055067;28;20520;-66
2022/04/29 09:42:43;;;;;;;2.42;1.38;;;15.40;79.80;;;;;;5054803;28;20029;-66
2022/04/29 09:45:14;;;;;;;2.00;1.50;;;15.70;78.80;;;;;;5053505;28;20068;-66
2022/04/29 09:47:39;;;;;;;2.28;1.33;;;15.90;78.70;;;;;;5054808;28;20045;-67
2022/04/29 09:50:05;;;;;;;4.30;1.58;;;15.90;76.00;;;;;;5054748;28;20491;-65
2022/04/29 09:52:37;;;;;;;3.85;1.45;;;15.70;75.90;;;;;;5054613;28;20029;-66
2022/04/29 09:55:14;;;;;;;1.60;1.17;;;15.50;76.50;;;;;;5055024;28;20474;-67
2022/04/29 09:57:59;;;;;;;2.80;1.23;;;15.40;78.70;;;;;;5054301;28;20030;-67
2022/04/29 10:00:25;;;;;;;3.13;1.23;;;15.50;78.40;;;;;;5054475;28;20063;-66
2022/04/29 10:02:51;;;;;;;1.73;1.30;;;16.10;74.80;;;;;;5054443;28;20140;-68
2022/04/29 10:05:17;;;;;;;1.73;1.13;;;16.00;75.30;;;;;;5054397;28;20096;-66
2022/04/29 10:07:43;;;;;;;1.50;1.40;;;16.00;71.00;;;;;;5054495;28;20029;-69
2022/04/29 10:10:10;;;;;;;2.15;1.73;;;16.80;73.60;;;;;;5054138;28;20036;-67
2022/04/29 10:12:36;;;;;;;3.13;1.13;;;17.20;73.50;;;;;;5052995;28;20041;-67
2022/04/29 10:15:06;;;;;;;3.42;1.75;;;17.60;68.90;;;;;;5054302;28;20591;-66
2022/04/29 10:23:13;;;;;;;2.17;1.42;;;18.50;62.70;;;;;;5054276;28;20107;-68
2022/04/29 10:25:45;;;;;;;1.88;1.10;;;18.70;60.00;;;;;;5054090;28;20040;-69
2022/04/29 10:28:16;;;;;;;2.38;0.85;;;19.20;60.00;;;;;;5054334;28;20485;-70
2022/04/29 10:30:42;;;;;;;2.47;1.20;;;19.30;56.90;;;;;;5053959;28;20036;-68
2022/04/29 10:33:12;;;;;;;1.65;1.40;;;19.60;56.30;;;;;;5053925;28;20428;-68
2022/04/29 10:35:47;;;;;;;2.85;1.10;;;19.90;54.90;;;;;;5053852;28;20108;-68
2022/04/29 10:38:22;;;;;;;4.85;1.27;;;20.20;54.70;;;;;;5053849;28;20116;-67
2022/04/29 10:41:10;;;;;;;1.42;1.00;;;20.50;53.50;;;;;;5053951;28;20083;-70
2022/04/29 10:43:51;;;;;;;1.30;1.02;;;21.20;50.80;;;;;;5053576;28;20085;-68
2022/04/29 10:46:31;;;;;;;1.75;1.20;;;21.20;48.50;;;;;;5053768;28;20100;-67
2022/04/29 10:48:57;;;;;;;1.52;1.23;;;20.80;48.40;;;;;;5053776;28;20131;-69
2022/04/29 10:51:26;;;;;;;1.52;1.23;;;19.70;50.80;;;;;;5053598;28;20469;-68
2022/04/29 10:53:56;;;;;;;2.53;1.35;;;19.40;51.30;;;;;;5053479;28;20033;-67
2022/04/29 10:56:31;;;;;;;1.20;1.10;;;18.50;50.10;;;;;;5053124;28;20041;-68
2022/04/29 10:59:12;;;;;;;2.92;1.02;;;18.60;54.00;;;;;;5053439;28;20053;-69
2022/04/29 11:01:39;;;;;;;1.98;1.08;;;19.30;52.30;;;;;;5053228;28;20044;-68
2022/04/29 11:04:07;;;;;;;4.28;1.30;;;19.80;53.30;;;;;;5053326;28;20072;-68
2022/04/29 11:06:47;;;;;;;3.35;1.30;;;20.30;49.10;;;;;;5053147;28;20025;-70
2022/04/29 11:09:28;;;;;;;2.00;1.15;;;20.60;49.20;;;;;;5053390;28;20095;-68
2022/04/29 11:11:55;;;;;;;2.78;1.45;;;20.70;49.10;;;;;;5053540;28;20146;-68
2022/04/29 11:14:21;;;;;;;4.88;1.63;;;20.50;48.00;;;;;;5053125;28;20108;-67
2022/04/29 11:17:06;;;;;;;7.00;1.70;;;19.80;47.10;;;;;;5053295;28;20033;-68
2022/04/29 11:19:47;;;;;;;2.15;1.30;;;18.70;49.90;;;;;;5053124;28;20044;-68
2022/04/29 11:25:03;;;;;;;4.50;1.38;;;18.60;52.90;;;;;;5053053;28;20052;-69
2022/04/29 11:27:37;;;;;;;4.35;1.75;;;19.10;52.30;;;;;;5052822;28;20193;-67
2022/04/29 11:30:04;;;;;;;1.52;1.42;;;19.00;49.60;;;;;;5053092;28;20040;-68
2022/04/29 11:32:30;;;;;;;3.22;1.40;;;19.10;52.00;;;;;;5052791;28;20069;-67
2022/04/29 11:35:00;;;;;;;1.83;1.27;;;19.40;49.80;;;;;;5053033;28;20485;-68
2022/04/29 11:37:28;;;;;;;2.22;1.33;;;19.40;50.80;;;;;;5052804;28;20524;-67
2022/04/29 11:40:03;;;;;;;3.25;1.73;;;19.50;49.10;;;;;;5052850;28;20187;-70
2022/04/29 11:42:29;;;;;;;2.25;1.33;;;20.60;49.20;;;;;;5052674;28;20048;-68
2022/04/29 11:44:55;;;;;;;2.95;1.35;;;20.70;47.40;;;;;;5052808;28;20401;-66
2022/04/29 11:47:25;;;;;;;2.30;1.20;;;20.70;47.50;;;;;;5053022;28;20064;-67
2022/04/29 11:49:52;;;;;;;2.00;1.50;;;21.00;48.30;;;;;;5052702;28;20250;-66
2022/04/29 11:52:21;;;;;;;;;;;21.00;45.70;;;;;;5052961;28;20108;-65
2022/04/29 11:54:56;;;;;;;2.50;1.17;;;21.10;45.30;;;;;;5052386;28;19994;-65
2022/04/29 11:57:23;;;;;;;3.00;1.42;;;20.60;45.40;;;;;;5052582;28;20163;-66
2022/04/29 11:59:49;;;;;;;1.23;1.13;;;20.90;44.10;;;;;;5052649;28;20076;-66
2022/04/29 12:02:20;;;;;;;1.55;1.42;;;21.00;47.60;;;;;;5052523;28;20040;-67
2022/04/29 12:04:57;;;;;;;2.53;1.23;;;21.40;46.30;;;;;;5052079;28;20049;-65
2022/04/29 12:07:24;;;;;;;4.63;1.67;;;21.20;45.80;;;;;;5052042;28;20477;-67
2022/04/29 12:09:50;;;;;;;2.65;1.42;;;20.40;44.80;;;;;;5052322;28;20542;-66
2022/04/29 12:12:25;;;;;;;1.10;1.00;;;19.50;46.20;;;;;;5052668;28;20029;-66
2022/04/29 12:14:51;;;;;;;2.88;1.20;;;19.20;48.20;;;;;;5052828;28;20497;-66
2022/04/29 12:17:17;;;;;;;2.38;1.40;;;19.80;52.40;;;;;;5052544;28;20504;-65
2022/04/29 12:19:43;;;;;;;2.95;1.10;;;21.20;49.40;;;;;;5052443;28;20037;-69
2022/04/29 12:22:11;;;;;;;1.58;1.00;;;22.40;46.40;;;;;;5052652;28;20049;-68
2022/04/29 12:24:43;;;;;;;2.22;1.10;;;24.20;42.40;;;;;;5052363;28;20037;-69
2022/04/29 12:27:09;;;;;;;1.80;1.10;;;23.60;40.40;;;;;;5052506;28;20041;-70
2022/04/29 12:29:39;;;;;;;1.23;1.13;;;23.40;40.60;;;;;;5052900;28;20124;-70
2022/04/29 12:35:11;;;;;;;4.65;1.55;;;24.40;38.70;;;;;;5052518;28;20071;-69
2022/04/29 12:37:37;;;;;;;2.15;1.17;;;23.30;38.80;;;;;;5052447;28;20037;-70
2022/04/29 12:40:08;;;;;;;2.70;1.50;;;22.50;39.90;;;;;;5052266;28;20546;-71
2022/04/29 12:42:34;;;;;;;19.98;1.90;;;21.40;39.50;;;;;;5052593;28;20060;-71
2022/04/29 12:47:39;;;;;;;2.22;1.40;;;21.70;42.00;;;;;;5052456;28;20400;-70
2022/04/29 12:50:31;;;;;;;2.20;1.35;;;22.10;41.70;;;;;;5052693;28;20481;-72
2022/04/29 12:53:00;;;;;;;2.15;1.27;;;23.10;43.50;;;;;;5052323;28;20094;-72
2022/04/29 12:55:27;;;;;;;1.90;1.40;;;22.40;41.50;;;;;;5052244;28;20084;-71
2022/04/29 12:58:01;;;;;;;;;;;21.30;39.60;;;;;;5052545;28;20392;-71
2022/04/29 13:00:27;;;;;;;1.83;1.20;;;20.40;42.20;;;;;;5012635;28;20425;-71
2022/04/29 13:03:03;;;;;;;3.35;1.48;;;19.80;44.10;;;;;;5032026;28;20133;-71
2022/04/29 13:05:30;;;;;;;1.63;1.53;;;20.50;47.40;;;;;;5032023;28;20041;-71
2022/04/29 13:07:56;;;;;;;3.38;2.55;;;22.00;44.50;;;;;;5031927;28;20267;-69
2022/04/29 13:10:22;;;;;;;2.28;1.50;;;23.40;42.70;;;;;;5032563;28;20495;-70
2022/04/29 13:12:49;;;;;;;2.85;1.50;;;23.20;41.80;;;;;;5014529;28;20029;-70
2022/04/29 13:15:15;;;;;;;2.72;1.52;;;22.30;41.50;;;;;;5014468;28;20076;-70
2022/04/29 13:17:41;;;;;;;2.58;1.60;;;21.40;42.90;;;;;;5030840;28;20084;-66
2022/04/29 13:20:08;;;;;;;3.55;1.60;;;20.70;44.20;;;;;;5033908;28;20033;-70
2022/04/29 13:22:38;;;;;;;2.58;1.60;;;20.10;45.90;;;;;;5035839;28;20112;-67
2022/04/29 13:25:10;;;;;;;3.35;1.90;;;20.30;47.30;;;;;;5035687;28;20156;-70
2022/04/29 13:27:35;;;;;;;3.00;1.52;;;20.00;46.00;;;;;;5035511;28;20417;-68
2022/04/29 13:30:02;;;;;;;4.20;1.92;;;19.30;45.00;;;;;;5035424;28;20029;-71